Thunder radar more information blitzortung!


Radar de pluja more information rain snow radar


Visita la nostra xarxa de llocs de meteo:

Template documentation
and downloads

And another site



Extreme low temperature From: 13-12-2017 09:00 Until: 09:59 warning for: Extreme low temperature Level: Yellow info button

Pagina Historial Weather Underground text

Diari Resum Novembre 28, 2017 Unitats:  Tant    Imperial   Mètric
« Previous Dia
SegĂźent Dia »
Diari Setmana Mensual Anual Personalitzada
  Maxima: Minima: Media:
Temperatura: 55.6 °F /  13.1 °C 35.4 °F /  1.9 °C 46.2 °F /  7.9 °C
Punt de rosada: 37 °F /  2.8 °C 22.3 °F /  -5.4 °C 28.4 °F /  -2 °C
Humitat: 68 % 40 % 51 %
Wind Speed: 12.7 mph /  20.4 km/h - 2.6 mph /  4.2 km/h
RĂ fegues de vent: 12.7 mph /  20.4 km/h - -
Vent:- - South
Pression baro: 30.2 in /  1023.9 hPa 29.8 in /  1010.7 hPa -
Precipitacions: 0 in /  0.0 mm    
Historical Graphs
 
 
Dades de taula per Novembre 28, 2017
Temps Temperatura Punt de rosada Pression baro Vent Wind Speed RĂ fegues de vent Humitat Rainfall Rate (Hourly)
00:03 39.6 °F /  4.2 °C 27.7 °F /  -2.4 °C 30.2 in /  1023.9 hPa West 1.2 mph /  1.9 km/h   62 % 0 in /  0.0 mm
00:05 36 °F /  2.2 °C 26.4 °F /  -3.1 °C 30.1 in /  1018.8 hPa Calm   2 mph /  3.2 km/h 68 % 0 in /  0.0 mm
00:08 39.6 °F /  4.2 °C 27.7 °F /  -2.4 °C 30.2 in /  1023.9 hPa Calm     62 % 0 in /  0.0 mm
00:13 39.4 °F /  4.1 °C 27.3 °F /  -2.6 °C 30.2 in /  1023.9 hPa Calm     62 % 0 in /  0.0 mm
00:15 36 °F /  2.2 °C 26.4 °F /  -3.1 °C 30.1 in /  1018.8 hPa Calm   2 mph /  3.2 km/h 68 % 0 in /  0.0 mm
00:25 36 °F /  2.2 °C 26.4 °F /  -3.1 °C 30.1 in /  1018.8 hPa SW 1 mph /  1.6 km/h 1 mph /  1.6 km/h 68 % 0 in /  0.0 mm
00:35 35.4 °F /  1.9 °C 25.9 °F /  -3.4 °C 30.1 in /  1018.8 hPa SW 1 mph /  1.6 km/h 2 mph /  3.2 km/h 68 % 0 in /  0.0 mm
00:45 35.6 °F /  2.0 °C 26.1 °F /  -3.3 °C 30.1 in /  1018.8 hPa SW 1 mph /  1.6 km/h 2 mph /  3.2 km/h 68 % 0 in /  0.0 mm
00:55 35.4 °F /  1.9 °C 25.9 °F /  -3.4 °C 30.1 in /  1018.8 hPa Calm   2 mph /  3.2 km/h 68 % 0 in /  0.0 mm
01:05 35.6 °F /  2.0 °C 25.7 °F /  -3.5 °C 30.1 in /  1018.8 hPa WSW 1 mph /  1.6 km/h 2 mph /  3.2 km/h 67 % 0 in /  0.0 mm
01:15 35.4 °F /  1.9 °C 25.9 °F /  -3.4 °C 30.1 in /  1018.8 hPa Calm   2 mph /  3.2 km/h 68 % 0 in /  0.0 mm
01:25 35.4 °F /  1.9 °C 25.9 °F /  -3.4 °C 30.1 in /  1018.8 hPa West 2 mph /  3.2 km/h 2 mph /  3.2 km/h 68 % 0 in /  0.0 mm
01:35 36 °F /  2.2 °C 26.1 °F /  -3.3 °C 30.1 in /  1018.8 hPa West 1 mph /  1.6 km/h 2 mph /  3.2 km/h 67 % 0 in /  0.0 mm
01:45 36 °F /  2.2 °C 26.4 °F /  -3.1 °C 30.1 in /  1018.8 hPa Calm   2 mph /  3.2 km/h 68 % 0 in /  0.0 mm
01:55 35.6 °F /  2.0 °C 25.7 °F /  -3.5 °C 30.1 in /  1018.8 hPa West 2 mph /  3.2 km/h 2 mph /  3.2 km/h 67 % 0 in /  0.0 mm
02:05 35.6 °F /  2.0 °C 25.7 °F /  -3.5 °C 30.1 in /  1018.8 hPa WNW 1 mph /  1.6 km/h 1 mph /  1.6 km/h 67 % 0 in /  0.0 mm
02:15 35.8 °F /  2.1 °C 25.9 °F /  -3.4 °C 30.1 in /  1018.8 hPa NW 1 mph /  1.6 km/h 3 mph /  4.8 km/h 67 % 0 in /  0.0 mm
02:25 35.8 °F /  2.1 °C 25.5 °F /  -3.6 °C 30.1 in /  1018.8 hPa WNW 1 mph /  1.6 km/h 2 mph /  3.2 km/h 66 % 0 in /  0.0 mm
02:35 36.5 °F /  2.5 °C 26.6 °F /  -3.0 °C 30.1 in /  1018.8 hPa West 1 mph /  1.6 km/h 2 mph /  3.2 km/h 67 % 0 in /  0.0 mm
02:45 37.4 °F /  3.0 °C 27.1 °F /  -2.7 °C 30.1 in /  1018.8 hPa West 1 mph /  1.6 km/h 4 mph /  6.4 km/h 66 % 0 in /  0.0 mm
02:55 37.9 °F /  3.3 °C 27.1 °F /  -2.7 °C 30.1 in /  1018.8 hPa NW 1 mph /  1.6 km/h 3 mph /  4.8 km/h 65 % 0 in /  0.0 mm
03:05 38.7 °F /  3.7 °C 27.5 °F /  -2.5 °C 30.1 in /  1018.8 hPa North 2 mph /  3.2 km/h 3 mph /  4.8 km/h 64 % 0 in /  0.0 mm
03:15 39.6 °F /  4.2 °C 28.4 °F /  -2.0 °C 30.1 in /  1018.8 hPa NNE 1 mph /  1.6 km/h 3 mph /  4.8 km/h 64 % 0 in /  0.0 mm
03:25 39.9 °F /  4.4 °C 28.2 °F /  -2.1 °C 30.1 in /  1018.8 hPa NNE 2 mph /  3.2 km/h 2 mph /  3.2 km/h 63 % 0 in /  0.0 mm
03:35 40.5 °F /  4.7 °C 28.8 °F /  -1.8 °C 30.1 in /  1018.8 hPa NNE 1 mph /  1.6 km/h 3 mph /  4.8 km/h 63 % 0 in /  0.0 mm
03:45 41.4 °F /  5.2 °C 29.3 °F /  -1.5 °C 30.1 in /  1018.8 hPa North 2 mph /  3.2 km/h 2 mph /  3.2 km/h 62 % 0 in /  0.0 mm
03:55 41.7 °F /  5.4 °C 29.7 °F /  -1.3 °C 30.1 in /  1019.9 hPa North 2 mph /  3.2 km/h 4 mph /  6.4 km/h 62 % 0 in /  0.0 mm
04:05 41.9 °F /  5.5 °C 29.5 °F /  -1.4 °C 30.1 in /  1018.8 hPa NE 3 mph /  4.8 km/h 3 mph /  4.8 km/h 61 % 0 in /  0.0 mm
04:15 42.6 °F /  5.9 °C 30 °F /  -1.1 °C 30.1 in /  1018.8 hPa NE 1 mph /  1.6 km/h 3 mph /  4.8 km/h 61 % 0 in /  0.0 mm
04:25 43.3 °F /  6.3 °C 30.4 °F /  -0.9 °C 30.1 in /  1018.8 hPa NNE 1 mph /  1.6 km/h 3 mph /  4.8 km/h 60 % 0 in /  0.0 mm
04:35 44.2 °F /  6.8 °C 31.3 °F /  -0.4 °C 30.1 in /  1018.8 hPa NNE 2 mph /  3.2 km/h 3 mph /  4.8 km/h 60 % 0 in /  0.0 mm
04:45 44.6 °F /  7.0 °C 31.1 °F /  -0.5 °C 30.1 in /  1018.8 hPa NNE 3 mph /  4.8 km/h 3 mph /  4.8 km/h 59 % 0 in /  0.0 mm
10:46 44.6 °F /  7.0 °C 30.7 °F /  -0.7 °C 30.1 in /  1018.8 hPa NNE 3.5 mph /  5.6 km/h 3.5 mph /  5.6 km/h 58 % 0 in /  0.0 mm
10:51 45 °F /  7.2 °C 31.1 °F /  -0.5 °C 30.1 in /  1018.8 hPa ENE 2.3 mph /  3.7 km/h 2.3 mph /  3.7 km/h 58 % 0 in /  0.0 mm
10:56 45.1 °F /  7.3 °C 30.7 °F /  -0.7 °C 30.1 in /  1018.8 hPa North 4.6 mph /  7.4 km/h 4.6 mph /  7.4 km/h 57 % 0 in /  0.0 mm
11:01 45.1 °F /  7.3 °C 30.7 °F /  -0.7 °C 30.1 in /  1018.8 hPa NNE 4.6 mph /  7.4 km/h 4.6 mph /  7.4 km/h 57 % 0 in /  0.0 mm
11:06 45.3 °F /  7.4 °C 30.9 °F /  -0.6 °C 30.1 in /  1018.8 hPa NE 5.8 mph /  9.3 km/h 5.8 mph /  9.3 km/h 57 % 0 in /  0.0 mm
11:11 46 °F /  7.8 °C 31.6 °F /  -0.2 °C 30.1 in /  1018.8 hPa NE 2.9 mph /  4.7 km/h 2.9 mph /  4.7 km/h 57 % 0 in /  0.0 mm
11:24 46.6 °F /  8.1 °C 31.6 °F /  -0.2 °C 30.1 in /  1018.8 hPa ESE 3.5 mph /  5.6 km/h 3.5 mph /  5.6 km/h 56 % 0 in /  0.0 mm
11:29 47.3 °F /  8.5 °C 32.4 °F /  0.2 °C 30.1 in /  1018.8 hPa WNW 4.6 mph /  7.4 km/h 4.6 mph /  7.4 km/h 56 % 0 in /  0.0 mm
11:34 47.5 °F /  8.6 °C 32.5 °F /  0.3 °C 30.1 in /  1018.8 hPa NNE 4.6 mph /  7.4 km/h 4.6 mph /  7.4 km/h 56 % 0 in /  0.0 mm
11:40 47.5 °F /  8.6 °C 32.2 °F /  0.1 °C 30.1 in /  1018.8 hPa NE 2 mph /  3.2 km/h 2 mph /  3.2 km/h 55 % 0 in /  0.0 mm
11:57 48.2 °F /  9.0 °C 32.7 °F /  0.4 °C 30.1 in /  1018.8 hPa WNW 2.3 mph /  3.7 km/h 2.3 mph /  3.7 km/h 55 % 0 in /  0.0 mm
12:02 49.3 °F /  9.6 °C 33.3 °F /  0.7 °C 30.1 in /  1017.8 hPa ENE 1.6 mph /  2.6 km/h 1.6 mph /  2.6 km/h 54 % 0 in /  0.0 mm
12:07 48.9 °F /  9.4 °C 32.5 °F /  0.3 °C 30.1 in /  1017.8 hPa ENE 4.6 mph /  7.4 km/h 4.6 mph /  7.4 km/h 53 % 0 in /  0.0 mm
12:28 49.3 °F /  9.6 °C 33.3 °F /  0.7 °C 30.1 in /  1017.8 hPa NNE 4.6 mph /  7.4 km/h 4.6 mph /  7.4 km/h 54 % 0 in /  0.0 mm
12:33 49.8 °F /  9.9 °C 33.4 °F /  0.8 °C 30 in /  1016.8 hPa NE 3.5 mph /  5.6 km/h 3.5 mph /  5.6 km/h 53 % 0 in /  0.0 mm
12:39 50.4 °F /  10.2 °C 34 °F /  1.1 °C 30 in /  1016.8 hPa NNE 3.5 mph /  5.6 km/h 3.5 mph /  5.6 km/h 53 % 0 in /  0.0 mm
12:44 50.4 °F /  10.2 °C 34 °F /  1.1 °C 30 in /  1016.8 hPa ENE 3.5 mph /  5.6 km/h 3.5 mph /  5.6 km/h 53 % 0 in /  0.0 mm
12:49 50.9 °F /  10.5 °C 34.3 °F /  1.3 °C 30 in /  1015.8 hPa ESE 2.3 mph /  3.7 km/h 2.3 mph /  3.7 km/h 53 % 0 in /  0.0 mm
12:54 52 °F /  11.1 °C 34.9 °F /  1.6 °C 30 in /  1015.8 hPa ESE 2.3 mph /  3.7 km/h 2.3 mph /  3.7 km/h 52 % 0 in /  0.0 mm
12:59 52.7 °F /  11.5 °C 35.6 °F /  2.0 °C 30 in /  1015.8 hPa SSW 2.3 mph /  3.7 km/h 2.3 mph /  3.7 km/h 52 % 0 in /  0.0 mm
13:04 53.4 °F /  11.9 °C 36.1 °F /  2.3 °C 30 in /  1015.8 hPa ESE 2.3 mph /  3.7 km/h 2.3 mph /  3.7 km/h 52 % 0 in /  0.0 mm
13:09 54.7 °F /  12.6 °C 36.9 °F /  2.7 °C 30 in /  1015.8 hPa SE 3.3 mph /  5.3 km/h 3.3 mph /  5.3 km/h 51 % 0 in /  0.0 mm
13:19 53.2 °F /  11.8 °C 35.6 °F /  2.0 °C 30 in /  1014.8 hPa East 4.6 mph /  7.4 km/h 4.6 mph /  7.4 km/h 51 % 0 in /  0.0 mm
13:24 53.4 °F /  11.9 °C 35.8 °F /  2.1 °C 30 in /  1014.8 hPa NW 2.4 mph /  3.9 km/h 2.4 mph /  3.9 km/h 51 % 0 in /  0.0 mm
13:29 54.1 °F /  12.3 °C 36.3 °F /  2.4 °C 30 in /  1014.8 hPa West 3.5 mph /  5.6 km/h 3.5 mph /  5.6 km/h 51 % 0 in /  0.0 mm
13:34 54.9 °F /  12.7 °C 37 °F /  2.8 °C 30 in /  1014.8 hPa WNW 5.8 mph /  9.3 km/h 5.8 mph /  9.3 km/h 51 % 0 in /  0.0 mm
13:39 55.2 °F /  12.9 °C 36.9 °F /  2.7 °C 30 in /  1014.8 hPa West 11.5 mph /  18.5 km/h 11.5 mph /  18.5 km/h 50 % 0 in /  0.0 mm
13:44 55.4 °F /  13.0 °C 36.5 °F /  2.5 °C 30 in /  1014.8 hPa WNW 10.4 mph /  16.7 km/h 10.4 mph /  16.7 km/h 49 % 0 in /  0.0 mm
13:49 55.4 °F /  13.0 °C 36.5 °F /  2.5 °C 30 in /  1014.8 hPa SW 6.9 mph /  11.1 km/h 6.9 mph /  11.1 km/h 49 % 0 in /  0.0 mm
13:50 55.6 °F /  13.1 °C 36.1 °F /  2.3 °C 30 in /  1014.8 hPa WSW 6.9 mph /  11.1 km/h 6.9 mph /  11.1 km/h 48 % 0 in /  0.0 mm
13:55 55.4 °F /  13.0 °C 34.9 °F /  1.6 °C 30 in /  1014.8 hPa WSW 12.7 mph /  20.4 km/h 12.7 mph /  20.4 km/h 46 % 0 in /  0.0 mm
14:00 55 °F /  12.8 °C 34.2 °F /  1.2 °C 30 in /  1014.8 hPa West 10.7 mph /  17.2 km/h 10.7 mph /  17.2 km/h 45 % 0 in /  0.0 mm
14:05 55 °F /  12.8 °C 33.4 °F /  0.8 °C 30 in /  1014.8 hPa WSW 11.5 mph /  18.5 km/h 11.5 mph /  18.5 km/h 44 % 0 in /  0.0 mm
14:10 55 °F /  12.8 °C 32.4 °F /  0.2 °C 30 in /  1014.8 hPa West 9.2 mph /  14.8 km/h 9.2 mph /  14.8 km/h 42 % 0 in /  0.0 mm
14:15 55.2 °F /  12.9 °C 33.1 °F /  0.6 °C 30 in /  1014.8 hPa West 8.1 mph /  13.0 km/h 8.1 mph /  13.0 km/h 43 % 0 in /  0.0 mm
14:20 55 °F /  12.8 °C 32.4 °F /  0.2 °C 30 in /  1014.8 hPa NW 10.4 mph /  16.7 km/h 10.4 mph /  16.7 km/h 42 % 0 in /  0.0 mm
14:25 55.2 °F /  12.9 °C 31.8 °F /  -0.1 °C 30 in /  1014.8 hPa WNW 9.2 mph /  14.8 km/h 9.2 mph /  14.8 km/h 41 % 0 in /  0.0 mm
14:35 55.2 °F /  12.9 °C 31.8 °F /  -0.1 °C 30 in /  1014.8 hPa West 3.5 mph /  5.6 km/h 3.5 mph /  5.6 km/h 41 % 0 in /  0.0 mm
14:50 55 °F /  12.8 °C 31.6 °F /  -0.2 °C 29.9 in /  1013.8 hPa West 3.5 mph /  5.6 km/h 3.5 mph /  5.6 km/h 41 % 0 in /  0.0 mm
14:55 55 °F /  12.8 °C 31.6 °F /  -0.2 °C 29.9 in /  1013.8 hPa WNW 3.5 mph /  5.6 km/h 3.5 mph /  5.6 km/h 41 % 0 in /  0.0 mm
15:00 55 °F /  12.8 °C 31.6 °F /  -0.2 °C 29.9 in /  1013.8 hPa East 5.8 mph /  9.3 km/h 5.8 mph /  9.3 km/h 41 % 0 in /  0.0 mm
15:05 55 °F /  12.8 °C 31.6 °F /  -0.2 °C 29.9 in /  1013.8 hPa NW 3.5 mph /  5.6 km/h 3.5 mph /  5.6 km/h 41 % 0 in /  0.0 mm
15:10 55 °F /  12.8 °C 31.6 °F /  -0.2 °C 29.9 in /  1013.8 hPa SW 3.5 mph /  5.6 km/h 3.5 mph /  5.6 km/h 41 % 0 in /  0.0 mm
15:15 55 °F /  12.8 °C 31.6 °F /  -0.2 °C 29.9 in /  1013.8 hPa WNW 4.9 mph /  7.9 km/h 4.9 mph /  7.9 km/h 41 % 0 in /  0.0 mm
15:25 55 °F /  12.8 °C 31.6 °F /  -0.2 °C 29.9 in /  1013.8 hPa West 2.3 mph /  3.7 km/h 2.3 mph /  3.7 km/h 41 % 0 in /  0.0 mm
15:30 54.7 °F /  12.6 °C 31.5 °F /  -0.3 °C 29.9 in /  1012.8 hPa North 4.6 mph /  7.4 km/h 4.6 mph /  7.4 km/h 41 % 0 in /  0.0 mm
15:45 54.3 °F /  12.4 °C 31.1 °F /  -0.5 °C 29.9 in /  1013.8 hPa WSW 4.6 mph /  7.4 km/h 4.6 mph /  7.4 km/h 41 % 0 in /  0.0 mm
15:55 54.9 °F /  12.7 °C 31.6 °F /  -0.2 °C 29.9 in /  1013.8 hPa NW 5.8 mph /  9.3 km/h 5.8 mph /  9.3 km/h 41 % 0 in /  0.0 mm
16:00 55 °F /  12.8 °C 31.6 °F /  -0.2 °C 29.9 in /  1013.8 hPa WSW 1.2 mph /  1.9 km/h 1.4 mph /  2.3 km/h 41 % 0 in /  0.0 mm
16:05 54.9 °F /  12.7 °C 31.6 °F /  -0.2 °C 29.9 in /  1013.8 hPa WNW 2.2 mph /  3.5 km/h 2.2 mph /  3.5 km/h 41 % 0 in /  0.0 mm
16:10 54.7 °F /  12.6 °C 31.5 °F /  -0.3 °C 29.9 in /  1013.8 hPa WSW 2.3 mph /  3.7 km/h 2.3 mph /  3.7 km/h 41 % 0 in /  0.0 mm
16:15 55.2 °F /  12.9 °C 31.8 °F /  -0.1 °C 29.9 in /  1013.8 hPa WSW 3.5 mph /  5.6 km/h 3.5 mph /  5.6 km/h 41 % 0 in /  0.0 mm
16:20 55.2 °F /  12.9 °C 31.8 °F /  -0.1 °C 29.9 in /  1013.8 hPa SW 1.2 mph /  1.9 km/h 1.2 mph /  1.9 km/h 41 % 0 in /  0.0 mm
16:25 54.7 °F /  12.6 °C 31.5 °F /  -0.3 °C 29.9 in /  1013.8 hPa North 1.2 mph /  1.9 km/h 1.2 mph /  1.9 km/h 41 % 0 in /  0.0 mm
16:35 54.5 °F /  12.5 °C 30.6 °F /  -0.8 °C 29.9 in /  1013.8 hPa NNW 1.6 mph /  2.6 km/h 1.6 mph /  2.6 km/h 40 % 0 in /  0.0 mm
16:40 54.3 °F /  12.4 °C 30.6 °F /  -0.8 °C 29.9 in /  1013.8 hPa SW 2.3 mph /  3.7 km/h 2.3 mph /  3.7 km/h 40 % 0 in /  0.0 mm
16:45 54.1 °F /  12.3 °C 30.4 °F /  -0.9 °C 29.9 in /  1013.8 hPa WNW 1.2 mph /  1.9 km/h 1.2 mph /  1.9 km/h 40 % 0 in /  0.0 mm
16:50 54.1 °F /  12.3 °C 30.9 °F /  -0.6 °C 29.9 in /  1013.8 hPa SSW 3.5 mph /  5.6 km/h 3.5 mph /  5.6 km/h 41 % 0 in /  0.0 mm
16:55 53.8 °F /  12.1 °C 30.6 °F /  -0.8 °C 29.9 in /  1013.8 hPa West 3.5 mph /  5.6 km/h 3.5 mph /  5.6 km/h 41 % 0 in /  0.0 mm
17:00 53.1 °F /  11.7 °C 29.5 °F /  -1.4 °C 29.9 in /  1012.8 hPa SW 3.5 mph /  5.6 km/h 3.5 mph /  5.6 km/h 40 % 0 in /  0.0 mm
17:05 52.9 °F /  11.6 °C 29.1 °F /  -1.6 °C 29.9 in /  1012.8 hPa WSW 2.3 mph /  3.7 km/h 2.3 mph /  3.7 km/h 40 % 0 in /  0.0 mm
17:10 52.5 °F /  11.4 °C 28.9 °F /  -1.7 °C 29.9 in /  1012.8 hPa SW 2.2 mph /  3.5 km/h   40 % 0 in /  0.0 mm
17:15 51.8 °F /  11.0 °C 28.2 °F /  -2.1 °C 29.9 in /  1012.8 hPa Calm     40 % 0 in /  0.0 mm
17:20 51.3 °F /  10.7 °C 27.7 °F /  -2.4 °C 29.9 in /  1012.8 hPa SW 1.6 mph /  2.6 km/h   40 % 0 in /  0.0 mm
17:30 50.4 °F /  10.2 °C 27 °F /  -2.8 °C 29.9 in /  1012.8 hPa Calm     40 % 0 in /  0.0 mm
17:35 49.8 °F /  9.9 °C 26.4 °F /  -3.1 °C 29.9 in /  1012.8 hPa Calm     40 % 0 in /  0.0 mm
17:40 49.3 °F /  9.6 °C 26.1 °F /  -3.3 °C 29.9 in /  1012.8 hPa WNW 2.3 mph /  3.7 km/h 2.3 mph /  3.7 km/h 40 % 0 in /  0.0 mm
17:50 48.9 °F /  9.4 °C 26.2 °F /  -3.2 °C 29.9 in /  1012.8 hPa SSW 2.4 mph /  3.9 km/h 2.4 mph /  3.9 km/h 41 % 0 in /  0.0 mm
17:55 48.7 °F /  9.3 °C 26.1 °F /  -3.3 °C 29.9 in /  1012.8 hPa NW 2.3 mph /  3.7 km/h 2.3 mph /  3.7 km/h 41 % 0 in /  0.0 mm
18:10 48.6 °F /  9.2 °C 25.9 °F /  -3.4 °C 29.9 in /  1012.8 hPa WSW 2.3 mph /  3.7 km/h   41 % 0 in /  0.0 mm
18:15 48.4 °F /  9.1 °C 25.7 °F /  -3.5 °C 29.9 in /  1012.8 hPa NW 1.6 mph /  2.6 km/h   41 % 0 in /  0.0 mm
18:20 48.2 °F /  9.0 °C 25.5 °F /  -3.6 °C 29.9 in /  1012.8 hPa SW 1.2 mph /  1.9 km/h   41 % 0 in /  0.0 mm
18:25 48.2 °F /  9.0 °C 25.5 °F /  -3.6 °C 29.9 in /  1012.8 hPa WSW 2.3 mph /  3.7 km/h 2.3 mph /  3.7 km/h 41 % 0 in /  0.0 mm
18:30 48 °F /  8.9 °C 25.3 °F /  -3.7 °C 29.9 in /  1012.8 hPa ESE 2.4 mph /  3.9 km/h   41 % 0 in /  0.0 mm
18:36 47.8 °F /  8.8 °C 25.2 °F /  -3.8 °C 29.9 in /  1012.8 hPa Calm     41 % 0 in /  0.0 mm
18:40 47.8 °F /  8.8 °C 25.9 °F /  -3.4 °C 29.9 in /  1012.8 hPa WNW 2.3 mph /  3.7 km/h 2.3 mph /  3.7 km/h 42 % 0 in /  0.0 mm
18:45 47.7 °F /  8.7 °C 25.7 °F /  -3.5 °C 29.9 in /  1011.7 hPa NW 2.9 mph /  4.7 km/h 2.9 mph /  4.7 km/h 42 % 0 in /  0.0 mm
18:48 47.5 °F /  8.6 °C 25.5 °F /  -3.6 °C 29.9 in /  1011.7 hPa WSW 3.5 mph /  5.6 km/h 3.5 mph /  5.6 km/h 42 % 0 in /  0.0 mm
18:53 47.5 °F /  8.6 °C 25.5 °F /  -3.6 °C 29.9 in /  1011.7 hPa WSW 2.4 mph /  3.9 km/h 2.4 mph /  3.9 km/h 42 % 0 in /  0.0 mm
19:03 46.9 °F /  8.3 °C 25.5 °F /  -3.6 °C 29.9 in /  1011.7 hPa West 2.3 mph /  3.7 km/h 2.3 mph /  3.7 km/h 43 % 0 in /  0.0 mm
19:08 46.8 °F /  8.2 °C 25.3 °F /  -3.7 °C 29.9 in /  1011.7 hPa West 1.2 mph /  1.9 km/h   43 % 0 in /  0.0 mm
19:13 46.6 °F /  8.1 °C 25.3 °F /  -3.7 °C 29.9 in /  1011.7 hPa SSE 1.2 mph /  1.9 km/h   43 % 0 in /  0.0 mm
19:18 46.2 °F /  7.9 °C 25 °F /  -3.9 °C 29.9 in /  1012.8 hPa WSW 2.3 mph /  3.7 km/h 2.3 mph /  3.7 km/h 43 % 0 in /  0.0 mm
19:23 46 °F /  7.8 °C 25.3 °F /  -3.7 °C 29.9 in /  1012.8 hPa West 2.4 mph /  3.9 km/h 2.4 mph /  3.9 km/h 44 % 0 in /  0.0 mm
19:33 45.7 °F /  7.6 °C 25 °F /  -3.9 °C 29.9 in /  1012.8 hPa SW 3.5 mph /  5.6 km/h 3.5 mph /  5.6 km/h 44 % 0 in /  0.0 mm
19:43 44.8 °F /  7.1 °C 24.6 °F /  -4.1 °C 29.9 in /  1012.8 hPa SW 1.2 mph /  1.9 km/h   45 % 0 in /  0.0 mm
19:48 44.2 °F /  6.8 °C 24.3 °F /  -4.3 °C 29.9 in /  1011.7 hPa Calm     45 % 0 in /  0.0 mm
19:53 43.9 °F /  6.6 °C 23.9 °F /  -4.5 °C 29.9 in /  1011.7 hPa Calm     45 % 0 in /  0.0 mm
19:58 43.7 °F /  6.5 °C 24.3 °F /  -4.3 °C 29.9 in /  1011.7 hPa NNE 2.3 mph /  3.7 km/h 2.3 mph /  3.7 km/h 46 % 0 in /  0.0 mm
20:03 43.7 °F /  6.5 °C 24.3 °F /  -4.3 °C 29.9 in /  1011.7 hPa North 1.2 mph /  1.9 km/h 1.2 mph /  1.9 km/h 46 % 0 in /  0.0 mm
20:08 43.9 °F /  6.6 °C 24.4 °F /  -4.2 °C 29.9 in /  1011.7 hPa Calm     46 % 0 in /  0.0 mm
20:13 44.2 °F /  6.8 °C 25.3 °F /  -3.7 °C 29.9 in /  1011.7 hPa West 2.3 mph /  3.7 km/h 2.3 mph /  3.7 km/h 47 % 0 in /  0.0 mm
20:18 44.4 °F /  6.9 °C 25.3 °F /  -3.7 °C 29.9 in /  1011.7 hPa West 2 mph /  3.2 km/h 2 mph /  3.2 km/h 47 % 0 in /  0.0 mm
20:23 44.4 °F /  6.9 °C 25.3 °F /  -3.7 °C 29.9 in /  1011.7 hPa Calm     47 % 0 in /  0.0 mm
20:33 43.7 °F /  6.5 °C 25.3 °F /  -3.7 °C 29.9 in /  1011.7 hPa NE 1.2 mph /  1.9 km/h   48 % 0 in /  0.0 mm
20:38 43.5 °F /  6.4 °C 25.2 °F /  -3.8 °C 29.9 in /  1011.7 hPa NNE 2.3 mph /  3.7 km/h 2.3 mph /  3.7 km/h 48 % 0 in /  0.0 mm
20:43 43.2 °F /  6.2 °C 24.8 °F /  -4.0 °C 29.9 in /  1011.7 hPa NNE 2.3 mph /  3.7 km/h 2.3 mph /  3.7 km/h 48 % 0 in /  0.0 mm
20:48 43.2 °F /  6.2 °C 24.8 °F /  -4.0 °C 29.9 in /  1011.7 hPa NNE 2.3 mph /  3.7 km/h 2.3 mph /  3.7 km/h 48 % 0 in /  0.0 mm
20:58 42.8 °F /  6.0 °C 25 °F /  -3.9 °C 29.9 in /  1011.7 hPa Calm     49 % 0 in /  0.0 mm
21:03 43 °F /  6.1 °C 25.2 °F /  -3.8 °C 29.9 in /  1012.8 hPa NNE 1.4 mph /  2.3 km/h   49 % 0 in /  0.0 mm
21:08 42.8 °F /  6.0 °C 25 °F /  -3.9 °C 29.9 in /  1012.8 hPa ENE 1.6 mph /  2.6 km/h 1.6 mph /  2.6 km/h 49 % 0 in /  0.0 mm
21:13 42.8 °F /  6.0 °C 25.3 °F /  -3.7 °C 29.9 in /  1012.8 hPa NNE 2.3 mph /  3.7 km/h 2.3 mph /  3.7 km/h 50 % 0 in /  0.0 mm
21:18 42.8 °F /  6.0 °C 25.3 °F /  -3.7 °C 29.9 in /  1011.7 hPa NE 2.3 mph /  3.7 km/h 2.3 mph /  3.7 km/h 50 % 0 in /  0.0 mm
21:28 42.8 °F /  6.0 °C 25.3 °F /  -3.7 °C 29.9 in /  1011.7 hPa North 2.3 mph /  3.7 km/h 2.3 mph /  3.7 km/h 50 % 0 in /  0.0 mm
21:33 42.6 °F /  5.9 °C 25.3 °F /  -3.7 °C 29.9 in /  1011.7 hPa North 1.2 mph /  1.9 km/h   50 % 0 in /  0.0 mm
21:38 42.8 °F /  6.0 °C 25.3 °F /  -3.7 °C 29.9 in /  1011.7 hPa WNW 1.4 mph /  2.3 km/h 1.4 mph /  2.3 km/h 50 % 0 in /  0.0 mm
21:43 42.8 °F /  6.0 °C 25.3 °F /  -3.7 °C 29.9 in /  1011.7 hPa WNW 1.2 mph /  1.9 km/h 1.2 mph /  1.9 km/h 50 % 0 in /  0.0 mm
21:48 42.4 °F /  5.8 °C 25.2 °F /  -3.8 °C 29.9 in /  1011.7 hPa Calm     50 % 0 in /  0.0 mm
21:53 42.3 °F /  5.7 °C 25 °F /  -3.9 °C 29.9 in /  1011.7 hPa WNW 1.6 mph /  2.6 km/h 1.6 mph /  2.6 km/h 50 % 0 in /  0.0 mm
22:03 41.7 °F /  5.4 °C 25 °F /  -3.9 °C 29.9 in /  1011.7 hPa West 1.2 mph /  1.9 km/h   51 % 0 in /  0.0 mm
22:08 41.5 °F /  5.3 °C 24.6 °F /  -4.1 °C 29.9 in /  1011.7 hPa Calm     51 % 0 in /  0.0 mm
22:18 41.7 °F /  5.4 °C 25 °F /  -3.9 °C 29.9 in /  1011.7 hPa NNE 2.3 mph /  3.7 km/h 2.3 mph /  3.7 km/h 51 % 0 in /  0.0 mm
22:23 41.5 °F /  5.3 °C 24.6 °F /  -4.1 °C 29.9 in /  1011.7 hPa East 1.4 mph /  2.3 km/h   51 % 0 in /  0.0 mm
22:28 41 °F /  5.0 °C 24.6 °F /  -4.1 °C 29.9 in /  1011.7 hPa SSE 2.9 mph /  4.7 km/h 2.9 mph /  4.7 km/h 52 % 0 in /  0.0 mm
22:38 40.6 °F /  4.8 °C 24.4 °F /  -4.2 °C 29.9 in /  1011.7 hPa NNE 2.3 mph /  3.7 km/h 2.3 mph /  3.7 km/h 52 % 0 in /  0.0 mm
22:53 40.3 °F /  4.6 °C 24.1 °F /  -4.4 °C 29.9 in /  1011.7 hPa NNE 1.4 mph /  2.3 km/h 1.4 mph /  2.3 km/h 52 % 0 in /  0.0 mm
22:54 40.3 °F /  4.6 °C 24.1 °F /  -4.4 °C 29.9 in /  1011.7 hPa NNE 1.4 mph /  2.3 km/h 1.4 mph /  2.3 km/h 52 % 0 in /  0.0 mm
23:04 39.7 °F /  4.3 °C 24.1 °F /  -4.4 °C 29.8 in /  1010.7 hPa North 1.2 mph /  1.9 km/h 1.2 mph /  1.9 km/h 53 % 0 in /  0.0 mm
23:09 39.7 °F /  4.3 °C 24.1 °F /  -4.4 °C 29.8 in /  1010.7 hPa WSW 1.6 mph /  2.6 km/h   53 % 0 in /  0.0 mm
23:19 38.3 °F /  3.5 °C 22.3 °F /  -5.4 °C 29.8 in /  1010.7 hPa SW 2.3 mph /  3.7 km/h 2.3 mph /  3.7 km/h 52 % 0 in /  0.0 mm
23:24 38.5 °F /  3.6 °C 22.8 °F /  -5.1 °C 29.8 in /  1010.7 hPa SW 2.3 mph /  3.7 km/h 2.3 mph /  3.7 km/h 53 % 0 in /  0.0 mm
23:29 38.5 °F /  3.6 °C 22.8 °F /  -5.1 °C 29.8 in /  1010.7 hPa SW 1.2 mph /  1.9 km/h   53 % 0 in /  0.0 mm
23:39 38.3 °F /  3.5 °C 22.6 °F /  -5.2 °C 29.8 in /  1010.7 hPa SW 2.3 mph /  3.7 km/h 2.3 mph /  3.7 km/h 53 % 0 in /  0.0 mm
23:49 38.1 °F /  3.4 °C 22.8 °F /  -5.1 °C 29.8 in /  1010.7 hPa WNW 1.2 mph /  1.9 km/h   54 % 0 in /  0.0 mm
23:54 38.1 °F /  3.4 °C 22.8 °F /  -5.1 °C 29.8 in /  1010.7 hPa WNW 1.4 mph /  2.3 km/h 1.6 mph /  2.6 km/h 54 % 0 in /  0.0 mm
23:59 38.1 °F /  3.4 °C 22.8 °F /  -5.1 °C 29.8 in /  1010.7 hPa WSW 2.4 mph /  3.9 km/h 2.4 mph /  3.9 km/h 54 % 0 in /  0.0 mm
Meteo Sesrovires
Elogis d' Weather Underground - 3.25 mb

Guio original per  Jim McMurry - jmcmurry@mwt.net Adaptat per a la plantilla per  Wim van der Kuil - Leuven-Template.eu

Trobareu la nostra informacio del temps tambe a:

Weather Underground

AWEKAS